createdAt,value
2023-02-19T00:00:09.501Z,95682.06
2023-02-19T00:02:35.959Z,95682.06
2023-02-19T00:05:02.446Z,95681.25
2023-02-19T00:07:28.877Z,95674.22
2023-02-19T00:09:55.229Z,95675.16
2023-02-19T00:12:23.898Z,95680.28
2023-02-19T00:14:50.225Z,95683.72
2023-02-19T00:17:16.571Z,95682.88
2023-02-19T00:19:42.928Z,95683.13
2023-02-19T00:22:09.730Z,95677.91
2023-02-19T00:24:38.204Z,95683.72
2023-02-19T00:27:07.125Z,95686.94
2023-02-19T00:29:33.823Z,95682.44
2023-02-19T00:32:00.265Z,95682.53
2023-02-19T00:34:26.783Z,95681.00
2023-02-19T00:37:00.758Z,95682.19
2023-02-19T00:39:27.131Z,95671.22
2023-02-19T00:41:53.877Z,95678.13
2023-02-19T00:44:20.281Z,95679.56
2023-02-19T00:46:47.328Z,95673.50
2023-02-19T00:49:13.689Z,95674.19
2023-02-19T00:51:40.179Z,95670.75
2023-02-19T00:54:06.627Z,95670.38
2023-02-19T00:56:33.009Z,95670.53
2023-02-19T00:59:01.508Z,95675.00
2023-02-19T01:01:28.126Z,95677.50
2023-02-19T01:03:55.551Z,95687.38
2023-02-19T01:06:22.161Z,95684.75
2023-02-19T01:08:48.729Z,95673.66
2023-02-19T01:11:15.397Z,95675.47
2023-02-19T01:13:41.759Z,95681.63
2023-02-19T01:16:08.144Z,95677.59
2023-02-19T01:18:34.736Z,95670.31
2023-02-19T01:21:01.124Z,95662.09
2023-02-19T01:23:29.662Z,95655.22
2023-02-19T01:25:56.299Z,95653.09
2023-02-19T01:28:22.936Z,95652.03
2023-02-19T01:30:49.728Z,95650.00
2023-02-19T01:33:16.144Z,95651.31
2023-02-19T01:35:42.722Z,95638.47
2023-02-19T01:38:09.331Z,95647.16
2023-02-19T01:40:35.803Z,95639.19
2023-02-19T01:43:02.129Z,95643.03
2023-02-19T01:45:29.695Z,95645.03
2023-02-19T01:47:56.150Z,95643.59
2023-02-19T01:50:22.518Z,95632.91
2023-02-19T01:52:48.906Z,95633.88
2023-02-19T01:55:17.714Z,95631.25
2023-02-19T01:57:44.410Z,95638.72
2023-02-19T02:00:10.798Z,95624.81
2023-02-19T02:02:37.629Z,95624.63
2023-02-19T02:05:04.021Z,95622.38
2023-02-19T02:07:30.357Z,95617.16
2023-02-19T02:09:56.690Z,95614.56
2023-02-19T02:12:23.030Z,95609.88
2023-02-19T02:14:49.575Z,95594.22
2023-02-19T02:17:15.975Z,95595.63
2023-02-19T02:19:42.573Z,95589.63
2023-02-19T02:22:09.023Z,95598.75
2023-02-19T02:24:35.359Z,95598.41
2023-02-19T02:27:01.694Z,95597.69
2023-02-19T02:29:28.074Z,95598.41
2023-02-19T02:31:55.555Z,95596.28
2023-02-19T02:34:21.993Z,95596.88
2023-02-19T02:36:48.346Z,95595.09
2023-02-19T02:39:14.683Z,95598.19
2023-02-19T02:41:41.246Z,95597.97
2023-02-19T02:44:09.895Z,95591.78
2023-02-19T02:46:36.371Z,95596.78
2023-02-19T02:49:02.720Z,95586.81
2023-02-19T02:51:29.477Z,95589.16
2023-02-19T02:53:56.064Z,95584.06
2023-02-19T02:56:22.444Z,95575.66
2023-02-19T02:58:48.777Z,95565.31
2023-02-19T03:01:15.189Z,95573.19
2023-02-19T03:03:41.798Z,95568.34
2023-02-19T03:06:08.212Z,95571.19
2023-02-19T03:08:34.602Z,95560.34
2023-02-19T03:11:00.940Z,95567.97
2023-02-19T03:13:28.393Z,95582.09
2023-02-19T03:15:55.062Z,95579.50
2023-02-19T03:18:21.476Z,95562.38
2023-02-19T03:20:47.877Z,95553.00
2023-02-19T03:23:14.214Z,95564.41
2023-02-19T03:25:40.607Z,95565.97
2023-02-19T03:28:06.980Z,95562.16
2023-02-19T03:30:33.392Z,95562.03
2023-02-19T03:32:59.802Z,95569.38
2023-02-19T03:35:26.205Z,95569.63
2023-02-19T03:37:53.106Z,95560.97
2023-02-19T03:40:19.478Z,95563.91
2023-02-19T03:42:45.850Z,95564.03
2023-02-19T03:45:12.228Z,95561.78
2023-02-19T03:47:38.574Z,95585.28
2023-02-19T03:50:04.901Z,95589.69
2023-02-19T03:52:31.386Z,95590.00
2023-02-19T03:54:57.789Z,95597.13
2023-02-19T03:57:24.148Z,95603.06
2023-02-19T03:59:50.539Z,95605.22
2023-02-19T04:02:16.954Z,95610.56
2023-02-19T04:04:45.733Z,95606.72
2023-02-19T04:07:12.146Z,95612.41
2023-02-19T04:09:38.482Z,95618.94
2023-02-19T04:12:05.258Z,95609.13
2023-02-19T04:14:34.041Z,95623.38
2023-02-19T04:17:00.485Z,95622.91
2023-02-19T04:19:26.870Z,95638.00
2023-02-19T04:21:53.244Z,95636.75
2023-02-19T04:24:19.684Z,95637.34
2023-02-19T04:26:46.060Z,95629.16
2023-02-19T04:29:12.402Z,95635.34
2023-02-19T04:31:38.845Z,95635.47
2023-02-19T04:34:05.249Z,95644.97
2023-02-19T04:36:31.663Z,95644.28
2023-02-19T04:39:00.346Z,95648.41
2023-02-19T04:41:26.984Z,95663.97
2023-02-19T04:43:53.427Z,95670.63
2023-02-19T04:46:22.032Z,95673.38
2023-02-19T04:48:48.412Z,95676.06
2023-02-19T04:51:14.747Z,95656.00
2023-02-19T04:53:41.162Z,95631.28
2023-02-19T04:56:07.495Z,95628.69
2023-02-19T04:58:33.902Z,95636.53
2023-02-19T05:01:00.287Z,95629.91
2023-02-19T05:03:26.725Z,95606.69
2023-02-19T05:05:53.071Z,95602.56
2023-02-19T05:08:19.475Z,95596.88
2023-02-19T05:10:45.817Z,95583.06
2023-02-19T05:13:12.183Z,95587.09
2023-02-19T05:15:38.629Z,95562.47
2023-02-19T05:18:05.025Z,95553.63
2023-02-19T05:20:31.390Z,95550.41
2023-02-19T05:22:58.274Z,95555.03
2023-02-19T05:25:24.684Z,95550.25
2023-02-19T05:27:51.019Z,95540.97
2023-02-19T05:30:18.439Z,95534.06
2023-02-19T05:32:44.810Z,95538.91
2023-02-19T05:35:11.170Z,95563.59
2023-02-19T05:37:37.574Z,95577.69
2023-02-19T05:40:04.141Z,95586.03
2023-02-19T05:42:31.506Z,95596.97
2023-02-19T05:44:57.834Z,95597.69
2023-02-19T05:47:26.531Z,95592.09
2023-02-19T05:49:53.835Z,95602.81
2023-02-19T05:52:20.207Z,95610.63
2023-02-19T05:54:46.627Z,95606.84
2023-02-19T05:57:12.967Z,95595.88
2023-02-19T05:59:39.335Z,95600.72
2023-02-19T06:02:05.678Z,95607.47
2023-02-19T06:04:32.167Z,95599.34
2023-02-19T06:06:59.818Z,95595.66
2023-02-19T06:09:26.198Z,95602.50
2023-02-19T06:11:52.582Z,95604.22
2023-02-19T06:14:18.934Z,95618.00
2023-02-19T06:16:45.468Z,95614.75
2023-02-19T06:19:11.825Z,95626.50
2023-02-19T06:21:38.173Z,95626.00
2023-02-19T06:24:04.508Z,95633.22
2023-02-19T06:26:30.841Z,95629.28
2023-02-19T06:28:57.162Z,95624.25
2023-02-19T06:31:23.881Z,95630.47
2023-02-19T06:33:50.345Z,95634.28
2023-02-19T06:36:19.063Z,95638.22
2023-02-19T06:38:45.449Z,95639.22
2023-02-19T06:41:12.225Z,95631.38
2023-02-19T06:43:38.747Z,95639.00
2023-02-19T06:46:05.437Z,95641.84
2023-02-19T06:48:31.790Z,95644.94
2023-02-19T06:50:58.338Z,95655.44
2023-02-19T06:53:24.701Z,95662.88
2023-02-19T06:55:51.027Z,95653.97
2023-02-19T06:58:17.356Z,95662.00
2023-02-19T07:00:43.756Z,95657.47
2023-02-19T07:03:10.088Z,95660.53
2023-02-19T07:05:36.665Z,95663.28
2023-02-19T07:08:03.068Z,95662.06
2023-02-19T07:10:29.519Z,95662.94
2023-02-19T07:12:55.967Z,95659.22
2023-02-19T07:15:22.380Z,95661.47
2023-02-19T07:17:48.766Z,95655.69
2023-02-19T07:20:15.146Z,95672.84
2023-02-19T07:22:41.934Z,95675.66
2023-02-19T07:25:08.281Z,95682.34
2023-02-19T07:27:34.678Z,95685.56
2023-02-19T07:30:01.125Z,95698.47
2023-02-19T07:32:27.874Z,95693.75
2023-02-19T07:34:54.239Z,95706.63
2023-02-19T07:37:20.581Z,95709.97
2023-02-19T07:39:46.965Z,95722.84
2023-02-19T07:42:13.345Z,95722.09
2023-02-19T07:44:39.923Z,95723.91
2023-02-19T07:47:06.479Z,95728.59
2023-02-19T07:49:32.862Z,95729.41
2023-02-19T07:51:59.343Z,95725.81
2023-02-19T07:54:32.766Z,95728.44
2023-02-19T07:56:59.112Z,95737.75
2023-02-19T07:59:25.623Z,95737.44
2023-02-19T08:01:51.981Z,95736.88
2023-02-19T08:04:18.338Z,95746.97
2023-02-19T08:06:44.925Z,95754.28
2023-02-19T08:09:11.410Z,95759.25
2023-02-19T08:11:40.215Z,95765.06
2023-02-19T08:14:06.794Z,95766.88
2023-02-19T08:16:42.896Z,95756.72
2023-02-19T08:19:09.833Z,95764.56
2023-02-19T08:21:36.357Z,95758.06
2023-02-19T08:24:02.739Z,95762.19
2023-02-19T08:26:29.189Z,95764.50
2023-02-19T08:28:55.747Z,95765.00
2023-02-19T08:31:22.182Z,95760.81
2023-02-19T08:33:51.024Z,95767.16
2023-02-19T08:36:17.449Z,95776.34
2023-02-19T08:38:43.952Z,95765.66
2023-02-19T08:41:10.711Z,95776.81
2023-02-19T08:43:37.395Z,95778.59
2023-02-19T08:46:03.968Z,95777.28
2023-02-19T08:48:30.385Z,95776.00
2023-02-19T08:50:56.710Z,95772.31
2023-02-19T08:53:23.123Z,95775.47
2023-02-19T08:55:49.509Z,95769.97
2023-02-19T08:58:15.921Z,95774.81
2023-02-19T09:00:42.324Z,95777.81
2023-02-19T09:03:08.664Z,95781.06
2023-02-19T09:05:35.039Z,95787.13
2023-02-19T09:08:01.428Z,95788.25
2023-02-19T09:10:28.827Z,95796.53
2023-02-19T09:12:55.409Z,95791.56
2023-02-19T09:15:21.804Z,95797.25
2023-02-19T09:17:48.172Z,95788.34
2023-02-19T09:20:14.791Z,95790.41
2023-02-19T09:22:41.169Z,95797.78
2023-02-19T09:25:07.931Z,95805.75
2023-02-19T09:27:36.751Z,95797.88
2023-02-19T09:30:15.119Z,95796.91
2023-02-19T09:48:56.079Z,95778.59
2023-02-19T09:51:22.418Z,95779.47
2023-02-19T09:53:50.826Z,95777.66
2023-02-19T09:56:17.260Z,95789.38
2023-02-19T10:01:25.914Z,95777.06
2023-02-19T10:03:53.551Z,95780.06
2023-02-19T10:06:19.940Z,95775.03
2023-02-19T10:08:46.359Z,95771.53
2023-02-19T10:11:12.997Z,95760.59
2023-02-19T10:13:39.568Z,95766.66
2023-02-19T10:16:06.027Z,95751.91
2023-02-19T10:18:32.569Z,95768.63
2023-02-19T10:20:58.940Z,95768.28
2023-02-19T10:23:25.356Z,95766.84
2023-02-19T10:25:51.748Z,95764.03
2023-02-19T10:30:44.550Z,95770.84
2023-02-19T10:33:10.942Z,95770.00
2023-02-19T10:35:37.523Z,95763.84
2023-02-19T10:38:03.875Z,95769.13
2023-02-19T10:40:30.264Z,95768.28
2023-02-19T10:42:56.610Z,95766.69
2023-02-19T10:45:24.006Z,95764.03
2023-02-19T10:47:50.464Z,95768.19
2023-02-19T10:50:18.905Z,95772.25
2023-02-19T10:52:45.269Z,95764.59
2023-02-19T10:55:11.622Z,95765.34
2023-02-19T10:57:37.985Z,95760.50
2023-02-19T11:00:04.472Z,95763.28
2023-02-19T11:02:30.823Z,95765.91
2023-02-19T11:04:57.199Z,95762.88
2023-02-19T11:07:23.545Z,95759.00
2023-02-19T11:09:50.015Z,95764.09
2023-02-19T11:12:16.388Z,95748.41
2023-02-19T11:14:42.781Z,95755.78
2023-02-19T11:17:09.341Z,95745.28
2023-02-19T11:19:36.141Z,95733.50
2023-02-19T11:22:02.489Z,95723.31
2023-02-19T11:24:28.866Z,95718.25
2023-02-19T11:26:55.233Z,95714.31
2023-02-19T11:29:24.423Z,95707.47
2023-02-19T11:31:50.889Z,95710.75
2023-02-19T11:34:19.381Z,95700.13
2023-02-19T11:36:47.057Z,95703.78
2023-02-19T11:39:13.442Z,95694.16
2023-02-19T11:41:39.788Z,95689.09
2023-02-19T11:44:06.337Z,95690.22
2023-02-19T11:46:32.687Z,95694.94
2023-02-19T11:48:59.112Z,95696.88
2023-02-19T11:51:25.560Z,95691.75
2023-02-19T11:53:51.891Z,95679.44
2023-02-19T11:56:18.357Z,95685.50
2023-02-19T11:58:44.703Z,95690.81
2023-02-19T12:01:11.287Z,95678.47
2023-02-19T12:03:38.391Z,95666.41
2023-02-19T12:06:04.788Z,95677.53
2023-02-19T12:08:32.365Z,95665.47
2023-02-19T12:10:59.336Z,95668.97
2023-02-19T12:13:25.725Z,95671.72
2023-02-19T12:15:52.344Z,95670.97
2023-02-19T12:18:18.695Z,95662.13
2023-02-19T12:20:46.063Z,95656.72
2023-02-19T12:23:12.546Z,95649.09
2023-02-19T12:25:38.936Z,95647.16
2023-02-19T12:28:05.317Z,95648.19
2023-02-19T12:30:31.982Z,95646.16
2023-02-19T12:32:58.472Z,95634.28
2023-02-19T12:35:24.870Z,95643.47
2023-02-19T12:37:52.458Z,95643.47
2023-02-19T12:40:19.018Z,95646.91
2023-02-19T12:42:45.394Z,95638.47
2023-02-19T12:45:14.161Z,95643.19
2023-02-19T12:47:40.511Z,95640.50
2023-02-19T12:50:07.404Z,95630.00
2023-02-19T12:52:37.819Z,95632.16
2023-02-19T12:55:04.191Z,95634.88
2023-02-19T12:57:30.533Z,95633.91
2023-02-19T12:59:56.922Z,95623.13
2023-02-19T13:02:23.409Z,95622.94
2023-02-19T13:04:50.368Z,95629.16
2023-02-19T13:07:16.802Z,95623.03
2023-02-19T13:09:43.185Z,95625.69
2023-02-19T13:12:09.529Z,95627.97
2023-02-19T13:14:35.943Z,95628.06
2023-02-19T13:17:02.987Z,95620.06
2023-02-19T13:19:29.525Z,95628.59
2023-02-19T13:21:55.869Z,95626.91
2023-02-19T13:24:24.395Z,95622.19
2023-02-19T13:26:51.950Z,95619.34
2023-02-19T13:29:18.565Z,95613.19
2023-02-19T13:31:45.072Z,95615.38
2023-02-19T13:34:11.529Z,95624.16
2023-02-19T13:36:39.095Z,95614.09
2023-02-19T13:39:06.518Z,95612.59
2023-02-19T13:41:35.166Z,95620.94
2023-02-19T13:44:01.565Z,95633.38
2023-02-19T13:46:28.078Z,95627.31
2023-02-19T13:48:54.669Z,95626.03
2023-02-19T13:51:21.124Z,95631.59
2023-02-19T13:53:47.833Z,95634.88
2023-02-19T13:56:14.218Z,95635.00
2023-02-19T13:58:40.920Z,95626.09
2023-02-19T14:01:07.538Z,95616.59
2023-02-19T14:03:33.899Z,95606.91
2023-02-19T14:06:00.329Z,95595.84
2023-02-19T14:08:26.787Z,95599.88
2023-02-19T14:10:53.173Z,95587.06
2023-02-19T14:13:19.515Z,95582.19
2023-02-19T14:15:45.961Z,95585.22
2023-02-19T14:18:14.874Z,95578.34
2023-02-19T14:20:43.565Z,95581.97
2023-02-19T14:23:11.042Z,95587.53
2023-02-19T14:25:37.517Z,95596.50
2023-02-19T14:28:04.069Z,95608.06
2023-02-19T14:30:32.174Z,95616.25
2023-02-19T14:33:09.800Z,95620.06
2023-02-19T14:35:36.837Z,95631.34
2023-02-19T14:38:03.459Z,95625.59
2023-02-19T14:40:29.924Z,95622.34
2023-02-19T14:42:57.394Z,95628.09
2023-02-19T14:45:24.080Z,95623.16
2023-02-19T14:47:50.626Z,95630.41
2023-02-19T14:50:17.004Z,95626.22
2023-02-19T14:52:43.432Z,95632.22
2023-02-19T14:55:09.895Z,95640.66
2023-02-19T14:57:36.609Z,95635.44
2023-02-19T15:00:04.622Z,95633.72
2023-02-19T15:02:31.102Z,95635.22
2023-02-19T15:04:57.510Z,95644.13
2023-02-19T15:07:25.088Z,95644.88
2023-02-19T15:09:51.509Z,95643.13
2023-02-19T15:12:20.456Z,95635.09
2023-02-19T15:14:49.189Z,95633.66
2023-02-19T15:17:15.560Z,95632.31
2023-02-19T15:19:42.011Z,95627.06
2023-02-19T15:22:08.488Z,95623.75
2023-02-19T15:24:34.941Z,95624.09
2023-02-19T15:27:01.387Z,95627.31
2023-02-19T15:29:27.789Z,95634.72
2023-02-19T15:31:54.367Z,95646.06
2023-02-19T15:34:20.903Z,95638.53
2023-02-19T15:36:47.454Z,95637.88
2023-02-19T15:39:14.186Z,95647.22
2023-02-19T15:41:40.604Z,95659.56
2023-02-19T15:44:07.044Z,95651.53
2023-02-19T15:46:33.441Z,95667.88
2023-02-19T15:48:59.801Z,95667.69
2023-02-19T15:51:27.444Z,95672.16
2023-02-19T15:53:53.840Z,95681.47
2023-02-19T15:56:20.256Z,95678.34
2023-02-19T15:58:47.213Z,95689.81
2023-02-19T16:01:14.020Z,95688.50
2023-02-19T16:03:40.511Z,95688.66
2023-02-19T16:06:07.226Z,95690.66
2023-02-19T16:08:33.718Z,95695.41
2023-02-19T16:11:00.106Z,95689.47
2023-02-19T16:13:26.425Z,95695.78
2023-02-19T16:15:52.921Z,95705.38
2023-02-19T16:18:19.362Z,95698.63
2023-02-19T16:20:45.735Z,95710.03
2023-02-19T16:23:12.373Z,95713.69
2023-02-19T16:25:40.979Z,95726.56
2023-02-19T16:28:09.302Z,95734.97
2023-02-19T16:30:35.931Z,95746.19
2023-02-19T16:33:02.504Z,95754.19
2023-02-19T16:35:29.181Z,95750.47
2023-02-19T16:37:55.542Z,95766.47
2023-02-19T16:40:24.718Z,95763.84
2023-02-19T16:42:54.482Z,95774.88
2023-02-19T16:45:20.926Z,95771.44
2023-02-19T16:47:51.330Z,95779.09
2023-02-19T16:50:18.140Z,95780.78
2023-02-19T16:52:44.602Z,95780.66
2023-02-19T16:55:10.954Z,95782.66
2023-02-19T16:57:37.317Z,95779.72
2023-02-19T17:00:04.145Z,95789.81
2023-02-19T17:02:30.503Z,95793.59
2023-02-19T17:04:56.892Z,95806.59
2023-02-19T17:07:23.556Z,95808.72
2023-02-19T17:09:50.032Z,95821.09
2023-02-19T17:12:16.403Z,95825.06
2023-02-19T17:14:43.013Z,95829.50
2023-02-19T17:17:09.373Z,95833.81
2023-02-19T17:19:36.172Z,95833.09
2023-02-19T17:22:02.562Z,95835.00
2023-02-19T17:24:28.970Z,95833.13
2023-02-19T17:26:55.438Z,95830.94
2023-02-19T17:29:22.082Z,95846.88
2023-02-19T17:31:48.571Z,95851.25
2023-02-19T17:34:14.967Z,95861.19
2023-02-19T17:36:41.328Z,95868.44
2023-02-19T17:39:08.019Z,95869.03
2023-02-19T17:41:34.619Z,95872.28
2023-02-19T17:44:01.093Z,95878.31
2023-02-19T17:46:27.489Z,95880.41
2023-02-19T17:48:54.196Z,95879.34
2023-02-19T17:51:20.637Z,95879.78
2023-02-19T17:53:48.179Z,95884.59
2023-02-19T17:56:14.725Z,95878.22
2023-02-19T17:58:41.289Z,95872.31
2023-02-19T18:01:12.375Z,95867.84
2023-02-19T18:03:39.246Z,95873.84
2023-02-19T18:06:06.220Z,95880.69
2023-02-19T18:08:32.947Z,95882.91
2023-02-19T18:11:01.008Z,95879.53
2023-02-19T18:13:30.593Z,95886.53
2023-02-19T18:15:56.986Z,95886.28
2023-02-19T18:18:25.792Z,95883.38
2023-02-19T18:20:52.174Z,95884.63
2023-02-19T18:23:19.565Z,95876.31
2023-02-19T18:25:46.206Z,95881.59
2023-02-19T18:28:13.906Z,95879.69
2023-02-19T18:30:40.672Z,95879.69
2023-02-19T18:33:07.366Z,95879.53
2023-02-19T18:35:34.990Z,95882.03
2023-02-19T18:38:01.633Z,95877.84
2023-02-19T18:40:28.175Z,95870.91
2023-02-19T18:42:54.693Z,95873.84
2023-02-19T18:45:22.016Z,95868.44
2023-02-19T18:47:48.465Z,95867.31
2023-02-19T18:50:14.819Z,95855.81
2023-02-19T18:52:41.607Z,95863.03
2023-02-19T18:55:08.175Z,95868.69
2023-02-19T18:57:34.778Z,95862.19
2023-02-19T19:00:01.340Z,95870.78
2023-02-19T19:02:33.752Z,95873.66
2023-02-19T19:05:06.045Z,95877.38
2023-02-19T19:07:32.400Z,95878.19
2023-02-19T19:09:58.736Z,95877.34
2023-02-19T19:12:25.110Z,95875.09
2023-02-19T19:14:51.827Z,95883.22
2023-02-19T19:17:18.175Z,95892.22
2023-02-19T19:19:45.551Z,95891.09
2023-02-19T19:22:13.157Z,95882.19
2023-02-19T19:24:39.587Z,95875.81
2023-02-19T19:27:07.979Z,95870.78
2023-02-19T19:29:34.437Z,95864.72
2023-02-19T19:32:00.938Z,95867.47
2023-02-19T19:34:27.526Z,95881.59
2023-02-19T19:36:53.868Z,95879.34
2023-02-19T19:39:20.230Z,95881.38
2023-02-19T19:41:46.575Z,95880.59
2023-02-19T19:44:13.187Z,95870.34
2023-02-19T19:46:39.616Z,95872.66
2023-02-19T19:49:06.043Z,95862.28
2023-02-19T19:51:32.667Z,95855.34
2023-02-19T19:53:59.079Z,95857.97
2023-02-19T19:56:27.842Z,95856.34
2023-02-19T19:58:58.552Z,95862.44
2023-02-19T20:01:24.877Z,95856.56
2023-02-19T20:03:53.616Z,95864.16
2023-02-19T20:06:20.003Z,95871.00
2023-02-19T20:08:46.351Z,95868.88
2023-02-19T20:11:12.937Z,95878.50
2023-02-19T20:13:39.378Z,95873.59
2023-02-19T20:16:05.765Z,95887.13
2023-02-19T20:18:32.276Z,95896.00
2023-02-19T20:20:58.627Z,95898.78
2023-02-19T20:23:27.129Z,95904.72
2023-02-19T20:25:53.769Z,95908.69
2023-02-19T20:28:20.226Z,95915.47
2023-02-19T20:30:47.089Z,95927.78
2023-02-19T20:33:20.889Z,95939.84
2023-02-19T20:35:47.297Z,95946.91
2023-02-19T20:38:13.644Z,95941.66
2023-02-19T20:40:44.220Z,95936.50
2023-02-19T20:43:10.823Z,95931.03
2023-02-19T20:45:37.229Z,95932.81
2023-02-19T20:48:04.720Z,95935.91
2023-02-19T20:50:32.042Z,95936.72
2023-02-19T20:52:58.424Z,95925.22
2023-02-19T20:55:25.222Z,95920.91
2023-02-19T20:57:51.621Z,95927.13
2023-02-19T21:00:18.054Z,95925.22
2023-02-19T21:02:46.512Z,95931.97
2023-02-19T21:05:12.925Z,95929.97
2023-02-19T21:07:40.328Z,95920.41
2023-02-19T21:10:06.827Z,95919.56
2023-02-19T21:12:35.223Z,95924.81
2023-02-19T21:15:01.564Z,95927.56
2023-02-19T21:17:29.077Z,95937.13
2023-02-19T21:19:55.480Z,95939.50
2023-02-19T21:22:22.313Z,95945.94
2023-02-19T21:24:51.251Z,95952.81
2023-02-19T21:27:17.651Z,95956.13
2023-02-19T21:29:44.068Z,95953.03
2023-02-19T21:32:12.941Z,95960.16
2023-02-19T21:34:39.533Z,95969.41
2023-02-19T21:37:06.448Z,95973.44
2023-02-19T21:39:32.795Z,95975.78
2023-02-19T21:41:59.156Z,95975.06
2023-02-19T21:44:27.790Z,95987.91
2023-02-19T21:46:54.244Z,95978.28
2023-02-19T21:49:20.659Z,95985.22
2023-02-19T21:51:47.124Z,95977.44
2023-02-19T21:54:13.493Z,95981.03
2023-02-19T21:56:39.864Z,95978.28
2023-02-19T21:59:06.246Z,95973.06
2023-02-19T22:01:32.627Z,95975.56
2023-02-19T22:03:59.440Z,95973.91
2023-02-19T22:06:28.623Z,95980.31
2023-02-19T22:08:57.673Z,95974.34
2023-02-19T22:11:24.246Z,95976.25
2023-02-19T22:13:51.704Z,95982.53
2023-02-19T22:16:18.373Z,95981.53
2023-02-19T22:18:44.770Z,95989.00
2023-02-19T22:21:11.414Z,95994.19
2023-02-19T22:23:37.785Z,95982.59
2023-02-19T22:26:04.208Z,95989.56
2023-02-19T22:28:30.667Z,95993.56
2023-02-19T22:30:57.263Z,95993.28
2023-02-19T22:33:23.602Z,95989.22
2023-02-19T22:35:50.095Z,95988.69
2023-02-19T22:38:16.482Z,95987.34
2023-02-19T22:40:44.098Z,95983.69
2023-02-19T22:43:10.437Z,95971.34
2023-02-19T22:45:36.953Z,95975.50
2023-02-19T22:48:03.747Z,95973.63
2023-02-19T22:50:32.405Z,95969.03
2023-02-19T22:52:58.759Z,95973.13
2023-02-19T22:55:25.138Z,95973.88
2023-02-19T22:57:51.626Z,95969.69
2023-02-19T23:00:18.264Z,95971.50
2023-02-19T23:02:44.720Z,95958.88
2023-02-19T23:05:11.048Z,95963.91
2023-02-19T23:07:37.399Z,95963.47
2023-02-19T23:10:03.734Z,95957.72
2023-02-19T23:12:31.043Z,95955.72
2023-02-19T23:14:57.414Z,95960.00
2023-02-19T23:17:23.764Z,95951.44
2023-02-19T23:19:50.111Z,95949.25
2023-02-19T23:22:16.488Z,95954.91
2023-02-19T23:24:42.814Z,95956.28
2023-02-19T23:27:09.524Z,95959.97
2023-02-19T23:29:36.300Z,95960.88
2023-02-19T23:32:02.674Z,95973.75
2023-02-19T23:34:29.096Z,95969.13
2023-02-19T23:36:55.481Z,95972.06
2023-02-19T23:39:21.844Z,95975.72
2023-02-19T23:41:55.558Z,95978.97
2023-02-19T23:44:21.972Z,95982.31
2023-02-19T23:46:48.367Z,95977.81
2023-02-19T23:49:14.754Z,95972.59
2023-02-19T23:51:41.142Z,95973.41
2023-02-19T23:54:07.491Z,95970.72
2023-02-19T23:56:34.062Z,95969.75
2023-02-19T23:59:00.430Z,95963.91
